Time;durP1;ratioP1;P1;durP2;ratioP2;P2;SDS_P1;SDS_P2;PMS_P1;PMS_P2;Temp;Humidity;BMP_temperature;BMP_pressure;BME280_temperature;BME280_humidity;BME280_pressure;Samples;Min_cycle;Max_cycle;Signal;HPM_P1;HPM_P2
2023/06/24 00:01:13;;;;;;;4.47;4.07;;;20.40;99.90;;;;;;4987394;28;20398;-75
2023/06/24 00:04:02;;;;;;;7.90;4.05;;;20.50;99.90;;;;;;4994247;28;20226;-75
2023/06/24 00:06:52;;;;;;;4.90;4.20;;;20.50;99.90;;;;;;4989694;28;20234;-73
2023/06/24 00:09:41;;;;;;;5.00;4.30;;;20.50;99.90;;;;;;4996081;28;20269;-74
2023/06/24 00:12:32;;;;;;;4.90;4.50;;;20.60;99.90;;;;;;4986339;28;20233;-75
2023/06/24 00:15:22;;;;;;;7.60;4.57;;;20.60;99.90;;;;;;4995038;28;20230;-73
2023/06/24 00:18:13;;;;;;;5.45;4.38;;;20.60;99.90;;;;;;4993587;28;20375;-72
2023/06/24 00:21:03;;;;;;;7.63;4.05;;;20.60;99.90;;;;;;5003392;28;20535;-74
2023/06/24 00:23:51;;;;;;;4.88;4.05;;;20.70;99.90;;;;;;4993509;28;20222;-73
2023/06/24 00:26:40;;;;;;;5.75;4.47;;;20.70;99.90;;;;;;4989786;28;20245;-73
2023/06/24 00:29:29;;;;;;;7.45;4.43;;;20.70;99.90;;;;;;4998534;28;20352;-73
2023/06/24 00:32:20;;;;;;;6.00;4.38;;;20.70;99.90;;;;;;4994446;28;20228;-72
2023/06/24 00:35:10;;;;;;;5.68;4.47;;;20.70;99.90;;;;;;4994458;28;20361;-73
2023/06/24 00:38:02;;;;;;;6.03;4.55;;;20.70;99.90;;;;;;4991135;28;20234;-74
2023/06/24 00:40:51;;;;;;;5.32;4.55;;;20.60;99.90;;;;;;5002465;28;20229;-74
2023/06/24 00:43:40;;;;;;;7.03;4.65;;;20.60;99.90;;;;;;4993758;28;20227;-74
2023/06/24 00:46:31;;;;;;;7.22;4.50;;;20.70;99.90;;;;;;4987162;28;20230;-74
2023/06/24 00:49:21;;;;;;;6.30;4.45;;;20.70;99.90;;;;;;4990629;28;20226;-73
2023/06/24 00:52:10;;;;;;;5.90;4.55;;;20.70;99.90;;;;;;4988422;28;20226;-73
2023/06/24 00:55:02;;;;;;;6.30;4.45;;;20.70;99.90;;;;;;4996201;28;20583;-73
2023/06/24 00:57:54;;;;;;;5.78;4.35;;;20.70;99.90;;;;;;4984562;28;20694;-72
2023/06/24 01:00:43;;;;;;;7.05;4.40;;;20.60;99.90;;;;;;4984209;28;20947;-73
2023/06/24 01:03:32;;;;;;;6.57;4.35;;;20.70;99.90;;;;;;4994585;28;20250;-74
2023/06/24 01:06:23;;;;;;;6.53;4.22;;;20.60;99.90;;;;;;4988481;28;20237;-73
2023/06/24 01:09:13;;;;;;;5.70;4.35;;;20.70;99.90;;;;;;5006835;28;20221;-73
2023/06/24 01:12:02;;;;;;;5.90;4.90;;;20.70;99.90;;;;;;4986104;28;20233;-72
2023/06/24 01:14:52;;;;;;;5.43;4.30;;;20.70;99.90;;;;;;4991250;28;20222;-71
2023/06/24 01:17:46;;;;;;;8.52;4.60;;;20.70;99.90;;;;;;4989076;28;20218;-72
2023/06/24 01:20:46;;;;;;;6.15;4.50;;;20.60;99.90;;;;;;4997161;28;20325;-73
2023/06/24 01:23:57;;;;;;;7.03;4.57;;;20.70;99.90;;;;;;4988009;28;20234;-72
2023/06/24 01:27:11;;;;;;;5.00;4.10;;;20.60;99.90;;;;;;4995339;28;20234;-73
2023/06/24 01:30:24;;;;;;;5.55;4.40;;;20.50;99.90;;;;;;4992232;28;20282;-72
2023/06/24 01:33:23;;;;;;;4.90;4.18;;;20.60;99.90;;;;;;4982818;28;20831;-71
2023/06/24 01:36:16;;;;;;;6.50;4.45;;;20.60;99.90;;;;;;4991381;28;20226;-70
2023/06/24 01:39:09;;;;;;;6.78;4.10;;;20.60;99.90;;;;;;5006986;28;20246;-73
2023/06/24 01:42:04;;;;;;;10.18;4.30;;;20.70;99.90;;;;;;4997025;28;20238;-73
2023/06/24 01:44:55;;;;;;;6.07;4.25;;;20.60;99.90;;;;;;4991444;28;20215;-73
2023/06/24 01:47:48;;;;;;;5.55;4.28;;;20.60;99.90;;;;;;4993217;28;20217;-73
2023/06/24 01:50:40;;;;;;;6.07;4.35;;;20.60;99.90;;;;;;4994577;28;20227;-72
2023/06/24 01:53:32;;;;;;;6.68;4.43;;;20.50;99.90;;;;;;4997417;28;20725;-72
2023/06/24 01:56:24;;;;;;;6.10;4.20;;;20.50;99.90;;;;;;4998394;28;20245;-73
2023/06/24 01:59:13;;;;;;;7.60;4.03;;;20.40;99.90;;;;;;4999446;28;21022;-74
2023/06/24 02:02:04;;;;;;;5.32;4.43;;;20.40;99.90;;;;;;5005756;28;20309;-73
2023/06/24 02:04:55;;;;;;;5.80;4.38;;;20.40;99.90;;;;;;5001204;28;20215;-73
2023/06/24 02:07:47;;;;;;;6.82;4.53;;;20.40;99.90;;;;;;5003864;28;20252;-76
2023/06/24 02:10:39;;;;;;;5.97;4.65;;;20.40;99.90;;;;;;4996173;28;20218;-74
2023/06/24 02:13:28;;;;;;;8.10;4.95;;;20.30;99.90;;;;;;4988391;28;20234;-74
2023/06/24 02:16:18;;;;;;;5.63;4.60;;;20.30;99.90;;;;;;4995057;28;20313;-73
2023/06/24 02:19:08;;;;;;;6.38;4.60;;;20.30;99.90;;;;;;4986485;28;20875;-72
2023/06/24 02:21:59;;;;;;;6.03;4.07;;;20.30;99.90;;;;;;5001644;28;20245;-73
2023/06/24 02:24:50;;;;;;;5.50;4.28;;;20.30;99.90;;;;;;4990247;28;20317;-74
2023/06/24 02:27:40;;;;;;;6.25;4.40;;;20.30;99.90;;;;;;5002501;28;20234;-73
2023/06/24 02:30:30;;;;;;;5.43;4.90;;;20.40;99.90;;;;;;4997015;28;20230;-73
2023/06/24 02:33:18;;;;;;;6.47;4.40;;;20.20;99.90;;;;;;5006823;28;20262;-73
2023/06/24 02:36:07;;;;;;;5.78;4.75;;;20.20;99.90;;;;;;4997315;28;20227;-73
2023/06/24 02:38:56;;;;;;;5.70;4.70;;;20.20;99.90;;;;;;4999884;28;20300;-73
2023/06/24 02:41:49;;;;;;;6.90;5.10;;;20.30;99.90;;;;;;4993733;28;20229;-73
2023/06/24 02:44:38;;;;;;;7.65;4.72;;;20.30;99.90;;;;;;5000725;28;20589;-73
2023/06/24 02:47:28;;;;;;;6.78;4.60;;;20.30;99.90;;;;;;4998816;28;20324;-73
2023/06/24 02:50:18;;;;;;;7.03;4.60;;;20.30;99.90;;;;;;4995680;28;20437;-72
2023/06/24 02:53:09;;;;;;;6.60;5.35;;;20.30;99.90;;;;;;4994459;28;20386;-71
2023/06/24 02:55:59;;;;;;;9.77;5.38;;;20.20;99.90;;;;;;5011658;28;20733;-71
2023/06/24 02:58:52;;;;;;;7.95;5.10;;;20.10;99.90;;;;;;5006042;28;20920;-71
2023/06/24 03:01:45;;;;;;;7.03;5.00;;;20.10;99.90;;;;;;5000978;28;20222;-71
2023/06/24 03:04:35;;;;;;;6.22;5.03;;;20.00;99.90;;;;;;4992594;28;20218;-73
2023/06/24 03:07:25;;;;;;;6.18;5.18;;;20.00;99.90;;;;;;5003365;28;20309;-74
2023/06/24 03:10:15;;;;;;;7.22;5.22;;;20.00;99.90;;;;;;4999040;28;20321;-73
2023/06/24 03:13:03;;;;;;;9.95;5.38;;;20.00;99.90;;;;;;5004878;28;20230;-73
2023/06/24 03:16:03;;;;;;;6.30;5.20;;;20.10;99.90;;;;;;5009776;28;20239;-73
2023/06/24 03:18:59;;;;;;;9.40;5.15;;;20.20;99.90;;;;;;5003191;28;20254;-74
2023/06/24 03:21:49;;;;;;;7.10;5.13;;;20.20;99.90;;;;;;4995343;28;20276;-73
2023/06/24 03:24:38;;;;;;;7.88;5.30;;;20.20;99.90;;;;;;4985348;28;20235;-73
2023/06/24 03:27:27;;;;;;;9.32;5.47;;;20.30;99.90;;;;;;4995534;28;20219;-73
2023/06/24 03:30:16;;;;;;;10.73;6.15;;;20.20;99.90;;;;;;4997033;28;20257;-74
2023/06/24 03:33:07;;;;;;;8.27;5.10;;;20.20;99.90;;;;;;5001055;28;20801;-73
2023/06/24 03:35:57;;;;;;;6.90;5.70;;;20.20;99.90;;;;;;5005200;28;20304;-74
2023/06/24 03:38:51;;;;;;;9.23;5.47;;;20.20;99.90;;;;;;5002801;28;20909;-74
2023/06/24 03:41:40;;;;;;;9.15;5.80;;;20.30;99.90;;;;;;4999510;28;20222;-73
2023/06/24 03:44:29;;;;;;;10.65;5.50;;;20.30;99.90;;;;;;5004504;28;20229;-74
2023/06/24 03:47:18;;;;;;;10.52;6.07;;;20.30;99.90;;;;;;4994189;28;20238;-73
2023/06/24 03:50:09;;;;;;;6.32;5.20;;;20.20;99.90;;;;;;4997968;28;20214;-74
2023/06/24 03:52:59;;;;;;;8.90;5.30;;;20.40;99.90;;;;;;5010374;28;20589;-74
2023/06/24 03:55:49;;;;;;;7.47;5.60;;;20.60;99.90;;;;;;4998939;28;20229;-74
2023/06/24 03:58:39;;;;;;;8.10;5.22;;;20.70;99.90;;;;;;4996370;28;20239;-74
2023/06/24 04:01:31;;;;;;;7.63;5.65;;;20.90;99.90;;;;;;5003831;28;20218;-74
2023/06/24 04:04:20;;;;;;;6.78;5.25;;;21.10;99.90;;;;;;4998004;28;20686;-73
2023/06/24 04:07:11;;;;;;;7.40;5.38;;;21.20;99.90;;;;;;4997291;28;20772;-71
2023/06/24 04:10:00;;;;;;;7.45;5.43;;;21.30;99.90;;;;;;4991394;28;20233;-72
2023/06/24 04:12:48;;;;;;;10.90;5.35;;;21.20;99.90;;;;;;4995997;28;20215;-74
2023/06/24 04:15:38;;;;;;;6.07;5.10;;;21.20;99.90;;;;;;5005498;28;20305;-70
2023/06/24 04:18:27;;;;;;;6.28;5.20;;;21.20;99.90;;;;;;5003061;28;20587;-71
2023/06/24 04:21:16;;;;;;;8.85;5.80;;;21.30;99.90;;;;;;5010553;28;20241;-72
2023/06/24 04:24:06;;;;;;;6.25;5.43;;;21.10;99.90;;;;;;4996224;28;20238;-72
2023/06/24 04:26:56;;;;;;;6.00;4.88;;;21.10;99.90;;;;;;5006634;28;20729;-72
2023/06/24 04:29:44;;;;;;;7.07;5.00;;;20.90;99.90;;;;;;4989548;28;20234;-74
2023/06/24 04:32:34;;;;;;;7.78;5.43;;;20.80;99.90;;;;;;5001545;28;20231;-73
2023/06/24 04:35:23;;;;;;;8.52;5.25;;;20.80;99.90;;;;;;5010405;28;20241;-72
2023/06/24 04:38:17;;;;;;;8.02;5.38;;;20.70;99.90;;;;;;4994035;28;20621;-74
2023/06/24 04:41:09;;;;;;;7.35;5.10;;;20.60;99.90;;;;;;4994548;28;20214;-73
2023/06/24 04:43:58;;;;;;;6.70;5.50;;;20.50;99.90;;;;;;4999741;28;20242;-73
2023/06/24 04:46:47;;;;;;;6.38;5.75;;;20.70;99.90;;;;;;4997929;28;20252;-74
2023/06/24 04:49:35;;;;;;;10.38;5.00;;;20.70;99.90;;;;;;4994987;28;20229;-73
2023/06/24 04:52:26;;;;;;;6.07;4.47;;;20.70;99.90;;;;;;5000798;28;20226;-73
2023/06/24 04:55:16;;;;;;;6.47;4.93;;;20.80;99.90;;;;;;5000656;28;20222;-73
2023/06/24 04:58:06;;;;;;;8.48;5.15;;;21.00;99.90;;;;;;4999362;28;20276;-75
2023/06/24 05:00:55;;;;;;;6.40;4.85;;;20.90;99.90;;;;;;4997250;28;20276;-74
2023/06/24 05:03:44;;;;;;;7.25;4.93;;;21.10;99.90;;;;;;4993326;28;20244;-74
2023/06/24 05:06:33;;;;;;;7.50;4.60;;;21.20;99.90;;;;;;4998231;28;20228;-73
2023/06/24 05:09:21;;;;;;;5.20;4.50;;;21.20;99.90;;;;;;4994513;28;20230;-76
2023/06/24 05:12:11;;;;;;;7.60;4.60;;;21.00;99.90;;;;;;4989636;28;20310;-74
2023/06/24 05:15:02;;;;;;;10.50;5.30;;;21.00;99.90;;;;;;4995443;28;20333;-73
2023/06/24 05:17:50;;;;;;;5.15;4.57;;;21.00;99.90;;;;;;4989671;28;20273;-75
2023/06/24 05:20:41;;;;;;;6.45;5.10;;;21.10;99.90;;;;;;5000859;28;20634;-75
2023/06/24 05:23:30;;;;;;;6.38;4.20;;;21.20;99.90;;;;;;4998912;28;20229;-74
2023/06/24 05:26:22;;;;;;;7.22;4.50;;;21.20;99.90;;;;;;5007335;28;20226;-74
2023/06/24 05:29:11;;;;;;;5.80;4.43;;;21.30;99.90;;;;;;4991687;28;20276;-73
2023/06/24 05:32:03;;;;;;;6.00;4.35;;;21.30;99.90;;;;;;5003898;28;20230;-73
2023/06/24 05:34:52;;;;;;;5.10;4.18;;;21.30;99.90;;;;;;4997896;28;20226;-73
2023/06/24 05:37:41;;;;;;;7.00;4.63;;;21.30;99.90;;;;;;4996083;28;20228;-73
2023/06/24 05:40:30;;;;;;;6.25;5.53;;;21.40;99.90;;;;;;4993489;28;20273;-75
2023/06/24 05:43:18;;;;;;;5.80;4.43;;;21.60;99.90;;;;;;4993583;28;20226;-74
2023/06/24 05:46:07;;;;;;;5.95;4.88;;;21.60;99.90;;;;;;4986208;28;20234;-75
2023/06/24 05:48:57;;;;;;;5.78;4.22;;;21.60;99.90;;;;;;4997717;28;20587;-75
2023/06/24 05:51:46;;;;;;;6.00;4.30;;;21.70;99.90;;;;;;5006203;28;20233;-76
2023/06/24 05:54:35;;;;;;;5.38;4.50;;;21.60;99.90;;;;;;4981955;28;20222;-75
2023/06/24 05:57:25;;;;;;;5.28;4.45;;;21.70;99.90;;;;;;5004202;28;20225;-73
2023/06/24 06:00:15;;;;;;;8.40;4.45;;;22.00;99.90;;;;;;4998982;28;21036;-71
2023/06/24 06:03:03;;;;;;;5.25;4.25;;;22.20;99.90;;;;;;4994938;28;20226;-74
2023/06/24 06:05:56;;;;;;;6.35;4.68;;;22.20;99.90;;;;;;5000127;28;20222;-74
2023/06/24 06:08:44;;;;;;;5.65;4.28;;;22.10;99.90;;;;;;4991630;28;20226;-74
2023/06/24 06:11:33;;;;;;;5.82;4.35;;;22.20;99.90;;;;;;4997071;28;20763;-76
2023/06/24 06:14:22;;;;;;;7.43;4.70;;;22.30;99.90;;;;;;4990795;28;20284;-75
2023/06/24 06:17:14;;;;;;;8.75;4.35;;;22.30;99.90;;;;;;4999056;28;20222;-74
2023/06/24 06:20:03;;;;;;;10.10;5.00;;;22.80;99.90;;;;;;5008035;28;20226;-74
2023/06/24 06:22:54;;;;;;;5.75;4.30;;;23.00;99.90;;;;;;5005368;28;20225;-74
2023/06/24 06:25:43;;;;;;;7.13;4.63;;;22.90;99.90;;;;;;4998825;28;20251;-72
2023/06/24 06:28:34;;;;;;;6.30;4.45;;;22.80;99.90;;;;;;4985758;28;20223;-76
2023/06/24 06:31:25;;;;;;;7.55;4.80;;;22.80;99.90;;;;;;4980177;28;20232;-75
2023/06/24 06:34:15;;;;;;;7.78;4.70;;;22.80;99.90;;;;;;4991681;28;20298;-73
2023/06/24 06:37:04;;;;;;;8.82;4.90;;;22.90;99.90;;;;;;4994084;28;20341;-74
2023/06/24 06:39:54;;;;;;;7.15;4.30;;;23.30;99.90;;;;;;4995797;28;20938;-72
2023/06/24 06:42:43;;;;;;;7.50;5.10;;;23.70;99.90;;;;;;4991208;28;20280;-74
2023/06/24 06:45:32;;;;;;;8.18;4.85;;;24.00;99.90;;;;;;4999798;28;20651;-74
2023/06/24 06:48:22;;;;;;;7.07;5.22;;;24.20;99.90;;;;;;4987860;28;20415;-75
2023/06/24 06:51:11;;;;;;;10.75;5.25;;;24.20;99.90;;;;;;4975811;28;20272;-76
2023/06/24 06:54:00;;;;;;;7.55;5.03;;;24.20;99.90;;;;;;4997311;28;20218;-70
2023/06/24 06:56:50;;;;;;;7.00;4.75;;;24.10;99.90;;;;;;4994126;28;20625;-69
2023/06/24 06:59:39;;;;;;;6.90;5.53;;;24.10;99.90;;;;;;4989377;28;20226;-73
2023/06/24 07:02:28;;;;;;;6.10;4.28;;;24.10;99.90;;;;;;4984289;28;20257;-73
2023/06/24 07:05:18;;;;;;;9.32;4.82;;;24.20;99.90;;;;;;4994627;28;20238;-74
2023/06/24 07:08:09;;;;;;;6.93;4.93;;;24.30;99.90;;;;;;4992532;28;20237;-76
2023/06/24 07:10:57;;;;;;;5.72;4.70;;;24.50;99.90;;;;;;4999796;28;20693;-79
2023/06/24 07:13:50;;;;;;;9.68;5.07;;;24.10;99.90;;;;;;4996102;28;20293;-78
2023/06/24 07:16:39;;;;;;;5.85;4.68;;;24.70;99.90;;;;;;4992336;28;20227;-79
2023/06/24 07:19:28;;;;;;;7.55;5.47;;;24.70;99.90;;;;;;4994740;28;20257;-80
2023/06/24 07:22:18;;;;;;;11.48;5.13;;;25.00;99.90;;;;;;5001520;28;20728;-78
2023/06/24 07:25:08;;;;;;;9.57;4.80;;;25.30;99.90;;;;;;5014335;28;20226;-78
2023/06/24 07:27:58;;;;;;;6.45;4.60;;;25.60;99.90;;;;;;5002853;28;20304;-78
2023/06/24 07:30:48;;;;;;;7.15;4.70;;;25.80;99.90;;;;;;4998467;28;20280;-79
2023/06/24 07:33:38;;;;;;;4.97;4.20;;;25.40;99.90;;;;;;4984290;28;21002;-78
2023/06/24 07:36:26;;;;;;;6.13;4.40;;;25.60;99.90;;;;;;5016196;28;20223;-78
2023/06/24 07:39:16;;;;;;;6.28;4.25;;;25.60;99.90;;;;;;4998911;28;20230;-78
2023/06/24 07:42:05;;;;;;;6.40;4.65;;;25.70;99.90;;;;;;5002670;28;20764;-78
2023/06/24 07:44:54;;;;;;;8.30;5.82;;;25.90;99.90;;;;;;5008784;28;20709;-81
2023/06/24 07:47:45;;;;;;;8.13;6.10;;;26.30;99.90;;;;;;5016174;28;20243;-78
2023/06/24 07:50:37;;;;;;;10.40;6.03;;;26.30;99.90;;;;;;5011199;28;20356;-78
2023/06/24 07:53:26;;;;;;;7.55;5.80;;;26.30;99.90;;;;;;5004511;28;20816;-77
2023/06/24 07:56:15;;;;;;;7.63;5.50;;;26.70;99.90;;;;;;4994477;28;20764;-79
2023/06/24 07:59:05;;;;;;;9.82;5.13;;;27.20;99.90;;;;;;5013901;28;20831;-78
2023/06/24 08:01:54;;;;;;;7.70;5.32;;;27.10;99.90;;;;;;5002984;28;20802;-79
2023/06/24 08:04:45;;;;;;;7.40;5.15;;;27.40;99.90;;;;;;5004677;28;20641;-79
2023/06/24 08:07:34;;;;;;;6.78;5.22;;;27.50;99.90;;;;;;4998072;28;20295;-76
2023/06/24 08:10:23;;;;;;;5.85;5.07;;;26.90;99.90;;;;;;5007350;28;20264;-78
2023/06/24 08:13:12;;;;;;;9.82;4.93;;;26.50;99.90;;;;;;5000524;28;20361;-78
2023/06/24 08:16:01;;;;;;;7.05;5.20;;;26.30;99.90;;;;;;5003325;28;20223;-79
2023/06/24 08:18:50;;;;;;;8.02;4.75;;;26.30;99.90;;;;;;4987959;28;20231;-78
2023/06/24 08:21:40;;;;;;;6.03;4.30;;;26.00;99.90;;;;;;4992619;28;20237;-78
2023/06/24 08:24:29;;;;;;;4.85;4.32;;;26.00;99.90;;;;;;4986696;28;20325;-80
2023/06/24 08:27:19;;;;;;;5.10;4.10;;;25.90;99.90;;;;;;4996802;28;20219;-80
2023/06/24 08:30:09;;;;;;;4.80;4.15;;;26.30;99.90;;;;;;4994667;28;20629;-74
2023/06/24 08:32:58;;;;;;;6.50;4.40;;;26.40;99.90;;;;;;4999488;28;20337;-78
2023/06/24 08:35:47;;;;;;;5.00;4.20;;;26.80;99.80;;;;;;4998272;28;20713;-71
2023/06/24 08:38:38;;;;;;;5.28;3.85;;;27.00;99.30;;;;;;5001110;28;20234;-73
2023/06/24 08:41:28;;;;;;;3.85;3.53;;;26.80;97.20;;;;;;4987342;28;20230;-77
2023/06/24 08:44:18;;;;;;;5.70;3.60;;;26.70;97.40;;;;;;4994510;28;20826;-75
2023/06/24 08:47:07;;;;;;;5.25;3.78;;;26.90;97.50;;;;;;5004599;28;20230;-78
2023/06/24 08:50:03;;;;;;;4.20;3.80;;;26.90;99.00;;;;;;5003851;28;20225;-77
2023/06/24 08:52:53;;;;;;;5.25;3.65;;;27.00;97.80;;;;;;4997945;28;20755;-77
2023/06/24 08:55:46;;;;;;;4.53;3.40;;;27.10;97.70;;;;;;4984121;28;20218;-77
2023/06/24 08:58:35;;;;;;;7.43;3.72;;;26.90;96.60;;;;;;5002245;28;20219;-77
2023/06/24 09:01:26;;;;;;;5.13;3.53;;;26.80;95.90;;;;;;4994725;28;20226;-71
2023/06/24 09:04:15;;;;;;;5.60;3.88;;;26.70;97.00;;;;;;4997940;28;20222;-81
2023/06/24 09:07:04;;;;;;;6.03;3.83;;;26.60;96.80;;;;;;4996167;28;20643;-75
2023/06/24 09:09:56;;;;;;;4.95;3.92;;;26.60;96.40;;;;;;4995911;28;20250;-74
2023/06/24 09:12:48;;;;;;;4.75;3.67;;;26.70;96.70;;;;;;4992866;28;20225;-73
2023/06/24 09:15:39;;;;;;;5.30;3.90;;;26.80;96.10;;;;;;4986380;28;20229;-75
2023/06/24 09:18:34;;;;;;;5.80;3.80;;;26.70;95.90;;;;;;4996946;28;20233;-74
2023/06/24 09:21:25;;;;;;;5.25;3.85;;;26.90;96.80;;;;;;5005323;28;20322;-74
2023/06/24 09:24:15;;;;;;;4.43;3.65;;;26.90;96.50;;;;;;4997277;28;20296;-73
2023/06/24 09:27:05;;;;;;;4.93;4.05;;;27.00;95.70;;;;;;4991141;28;20253;-74
2023/06/24 09:29:55;;;;;;;4.30;3.90;;;27.30;94.50;;;;;;4994628;28;21065;-73
2023/06/24 09:32:44;;;;;;;4.28;3.67;;;27.60;96.90;;;;;;4993502;28;20292;-73
2023/06/24 09:35:37;;;;;;;5.25;4.22;;;27.60;94.60;;;;;;4991508;28;20222;-74
2023/06/24 09:38:34;;;;;;;5.05;4.05;;;27.50;93.80;;;;;;4991230;28;20234;-73
2023/06/24 09:41:22;;;;;;;5.43;4.32;;;27.50;94.00;;;;;;4995717;28;20713;-73
2023/06/24 09:44:12;;;;;;;4.75;4.00;;;27.40;93.40;;;;;;4986311;28;20233;-73
2023/06/24 09:47:03;;;;;;;7.25;3.90;;;27.60;94.10;;;;;;4998328;28;20268;-75
2023/06/24 09:49:52;;;;;;;4.97;4.05;;;27.60;95.10;;;;;;5000235;28;20238;-73
2023/06/24 09:52:43;;;;;;;4.50;4.10;;;27.60;92.40;;;;;;4997845;28;20226;-74
2023/06/24 09:55:34;;;;;;;5.60;3.97;;;27.70;92.30;;;;;;5003695;28;20716;-72
2023/06/24 09:58:24;;;;;;;4.82;4.30;;;28.00;93.70;;;;;;4997873;28;20788;-73
2023/06/24 10:01:16;;;;;;;5.22;4.30;;;27.90;94.70;;;;;;4991096;28;20991;-73
2023/06/24 10:04:08;;;;;;;5.90;4.55;;;27.40;92.60;;;;;;5004238;28;20688;-74
2023/06/24 10:06:58;;;;;;;5.18;4.15;;;27.10;93.40;;;;;;5000746;28;20245;-72
2023/06/24 10:09:47;;;;;;;7.18;4.10;;;26.80;93.60;;;;;;4998198;28;20227;-73
2023/06/24 10:12:37;;;;;;;4.80;4.30;;;26.70;95.10;;;;;;5002050;28;20233;-73
2023/06/24 10:15:26;;;;;;;7.13;3.97;;;26.60;93.70;;;;;;5002686;28;20241;-72
2023/06/24 10:18:35;;;;;;;6.43;4.05;;;26.40;93.70;;;;;;4991020;28;20230;-73
2023/06/24 10:21:46;;;;;;;6.32;3.83;;;26.30;93.90;;;;;;4998727;28;20221;-73
2023/06/24 10:24:39;;;;;;;4.68;3.97;;;26.40;95.10;;;;;;4992573;28;20238;-73
2023/06/24 10:27:32;;;;;;;5.88;3.97;;;26.50;94.70;;;;;;5000493;28;20705;-74
2023/06/24 10:30:23;;;;;;;7.45;4.70;;;26.50;94.00;;;;;;5000386;28;20250;-72
2023/06/24 10:33:12;;;;;;;5.18;4.32;;;26.60;94.30;;;;;;4994700;28;20229;-72
2023/06/24 10:36:02;;;;;;;5.65;4.38;;;26.60;94.40;;;;;;5000287;28;20276;-72
2023/06/24 10:38:58;;;;;;;8.20;4.43;;;26.80;95.50;;;;;;5001490;28;20759;-72
2023/06/24 10:41:47;;;;;;;6.85;3.78;;;26.90;94.00;;;;;;4998768;28;20333;-72
2023/06/24 10:44:46;;;;;;;5.57;4.22;;;27.00;95.20;;;;;;5003437;28;20313;-71
2023/06/24 10:47:41;;;;;;;8.95;4.45;;;27.00;94.70;;;;;;5005334;28;20312;-72
2023/06/24 10:50:30;;;;;;;5.68;4.15;;;27.20;94.80;;;;;;5010895;28;20305;-72
2023/06/24 10:53:19;;;;;;;6.30;3.92;;;27.20;94.20;;;;;;4993077;28;20460;-71
2023/06/24 10:56:10;;;;;;;7.15;4.35;;;27.10;96.00;;;;;;5005693;28;20321;-73
2023/06/24 10:58:59;;;;;;;7.32;4.32;;;27.10;95.30;;;;;;5003985;28;20315;-71
2023/06/24 11:01:53;;;;;;;6.68;4.05;;;27.10;95.10;;;;;;5008525;28;20222;-71
2023/06/24 11:04:45;;;;;;;10.75;4.30;;;26.90;94.40;;;;;;5001655;28;20230;-73
2023/06/24 11:07:36;;;;;;;5.53;4.43;;;26.60;93.00;;;;;;4978802;28;21003;-71
2023/06/24 11:10:26;;;;;;;8.80;4.40;;;26.50;93.40;;;;;;5001683;28;20677;-72
2023/06/24 11:13:20;;;;;;;6.93;4.15;;;26.50;94.90;;;;;;4999587;28;20265;-72
2023/06/24 11:16:09;;;;;;;6.70;4.15;;;26.30;95.20;;;;;;5002495;28;20230;-73
2023/06/24 11:19:01;;;;;;;6.20;4.38;;;26.10;95.50;;;;;;4997408;28;20226;-72
2023/06/24 11:21:50;;;;;;;9.32;4.70;;;26.00;95.80;;;;;;4998932;28;20218;-72
2023/06/24 11:24:41;;;;;;;10.30;4.25;;;25.90;95.80;;;;;;4979400;28;20723;-73
2023/06/24 11:27:31;;;;;;;6.15;4.13;;;25.80;95.20;;;;;;5003311;28;20685;-73
2023/06/24 11:30:22;;;;;;;5.88;3.95;;;25.60;94.70;;;;;;4993798;28;20249;-73
2023/06/24 11:33:11;;;;;;;4.45;3.78;;;25.50;96.10;;;;;;4997377;28;21093;-73
2023/06/24 11:35:59;;;;;;;7.18;4.38;;;25.30;95.30;;;;;;5002537;28;20270;-73
2023/06/24 11:38:50;;;;;;;5.60;4.32;;;25.30;96.50;;;;;;4995244;28;20242;-73
2023/06/24 11:41:40;;;;;;;6.18;4.25;;;25.20;96.50;;;;;;4994048;28;20249;-74
2023/06/24 11:44:28;;;;;;;6.25;4.45;;;25.20;95.90;;;;;;4984263;28;20717;-73
2023/06/24 11:47:25;;;;;;;6.50;4.20;;;25.10;96.20;;;;;;4998956;28;20291;-73
2023/06/24 11:50:13;;;;;;;7.00;4.40;;;25.10;97.90;;;;;;4995755;28;20236;-73
2023/06/24 11:53:02;;;;;;;8.35;4.30;;;25.10;97.70;;;;;;5006001;28;20222;-73
2023/06/24 11:55:53;;;;;;;5.65;4.72;;;25.10;98.70;;;;;;5005082;28;20726;-73
2023/06/24 11:58:44;;;;;;;6.55;4.53;;;25.00;98.60;;;;;;4988245;28;20697;-72
2023/06/24 12:01:36;;;;;;;7.63;5.13;;;25.10;98.60;;;;;;4995157;28;20584;-73
2023/06/24 12:04:31;;;;;;;8.65;5.10;;;25.10;99.10;;;;;;5002582;28;20275;-73
2023/06/24 12:07:20;;;;;;;8.80;5.60;;;25.00;99.30;;;;;;5004063;28;20226;-73
2023/06/24 12:10:11;;;;;;;8.65;4.97;;;24.90;99.90;;;;;;4991500;28;21578;-74
2023/06/24 12:13:01;;;;;;;7.20;5.15;;;24.90;99.90;;;;;;5004083;28;20227;-72
2023/06/24 12:15:50;;;;;;;4.90;4.45;;;24.90;99.90;;;;;;4995003;28;21009;-74
2023/06/24 12:18:38;;;;;;;5.43;4.93;;;24.90;99.90;;;;;;4991922;28;20628;-73
2023/06/24 12:21:29;;;;;;;7.43;4.85;;;24.70;99.90;;;;;;5009763;28;20255;-73
2023/06/24 12:24:18;;;;;;;8.65;4.93;;;24.70;99.90;;;;;;4998333;28;20245;-73
2023/06/24 12:27:07;;;;;;;7.80;5.20;;;24.80;99.90;;;;;;4997900;28;20712;-73
2023/06/24 12:29:57;;;;;;;6.20;4.70;;;24.80;99.90;;;;;;4998399;28;20304;-73
2023/06/24 12:32:46;;;;;;;4.70;4.20;;;24.80;99.90;;;;;;4992376;28;20621;-72
2023/06/24 12:35:36;;;;;;;7.20;4.65;;;24.70;99.90;;;;;;5000059;28;20312;-72
2023/06/24 12:38:27;;;;;;;8.23;4.63;;;24.60;99.90;;;;;;5000225;28;20229;-73
2023/06/24 12:41:18;;;;;;;8.75;4.68;;;24.60;99.90;;;;;;5001999;28;20710;-74
2023/06/24 12:44:06;;;;;;;8.80;4.63;;;24.40;99.90;;;;;;5003253;28;20234;-74
2023/06/24 12:46:55;;;;;;;7.10;4.55;;;24.50;99.90;;;;;;5002959;28;20218;-71
2023/06/24 12:49:44;;;;;;;7.53;4.55;;;24.50;99.90;;;;;;4991314;28;20254;-73
2023/06/24 12:52:33;;;;;;;7.57;4.57;;;24.50;99.80;;;;;;4998294;28;20681;-73
2023/06/24 12:55:24;;;;;;;7.18;4.55;;;24.40;99.90;;;;;;4997589;28;20227;-72
2023/06/24 12:58:14;;;;;;;5.75;4.85;;;24.50;99.90;;;;;;4996311;28;20701;-72
2023/06/24 13:01:03;;;;;;;6.82;4.53;;;24.40;99.90;;;;;;4993244;28;20261;-73
2023/06/24 13:03:52;;;;;;;7.93;4.45;;;24.50;99.90;;;;;;4993016;28;20501;-73
2023/06/24 13:06:41;;;;;;;8.48;5.00;;;24.40;99.90;;;;;;4990006;28;20253;-74
2023/06/24 13:09:30;;;;;;;6.57;4.80;;;24.50;99.90;;;;;;5005614;28;20230;-73
2023/06/24 13:12:22;;;;;;;7.80;5.22;;;24.70;99.90;;;;;;4991904;28;20266;-73
2023/06/24 13:15:12;;;;;;;7.13;4.80;;;24.90;99.90;;;;;;4998063;28;20287;-74
2023/06/24 13:18:02;;;;;;;9.85;5.60;;;25.20;99.90;;;;;;4990255;28;20232;-74
2023/06/24 13:20:52;;;;;;;10.15;5.28;;;25.30;99.90;;;;;;4993292;28;20241;-73
2023/06/24 13:23:54;;;;;;;11.88;5.72;;;25.50;99.90;;;;;;4993005;28;20608;-71
2023/06/24 13:26:44;;;;;;;8.27;4.60;;;25.50;99.80;;;;;;5009250;28;20257;-72
2023/06/24 13:29:34;;;;;;;6.70;4.50;;;25.60;99.10;;;;;;4989724;28;20234;-73
2023/06/24 13:32:24;;;;;;;11.02;5.13;;;25.50;99.20;;;;;;5002873;28;20226;-71
2023/06/24 13:35:14;;;;;;;9.20;4.72;;;25.50;98.50;;;;;;4994968;28;20713;-72
2023/06/24 13:38:03;;;;;;;7.07;4.30;;;25.50;98.90;;;;;;4986911;28;20233;-73
2023/06/24 13:40:53;;;;;;;4.63;3.95;;;25.60;98.60;;;;;;4986601;28;20306;-72
2023/06/24 13:43:42;;;;;;;5.90;4.00;;;25.80;97.30;;;;;;5004952;28;20211;-71
2023/06/24 13:46:34;;;;;;;5.63;4.22;;;25.90;97.30;;;;;;4988707;28;20229;-77
2023/06/24 13:49:23;;;;;;;5.00;4.00;;;26.10;97.60;;;;;;4996748;28;20226;-73
2023/06/24 13:52:12;;;;;;;6.82;3.65;;;26.30;95.60;;;;;;4991841;28;20264;-74
2023/06/24 13:55:01;;;;;;;4.38;3.60;;;26.30;96.80;;;;;;4995363;28;20234;-78
2023/06/24 13:57:49;;;;;;;5.88;3.63;;;26.10;94.70;;;;;;4995775;28;20345;-72
2023/06/24 14:00:39;;;;;;;4.55;3.63;;;26.20;94.60;;;;;;4988650;28;20233;-76
2023/06/24 14:03:30;;;;;;;6.13;4.50;;;26.30;93.60;;;;;;4983526;28;20222;-78
2023/06/24 14:06:21;;;;;;;4.30;3.80;;;26.40;93.60;;;;;;4994697;28;20234;-77
2023/06/24 14:09:10;;;;;;;4.60;3.38;;;26.20;93.50;;;;;;4982922;28;20226;-75
2023/06/24 14:11:59;;;;;;;3.88;3.33;;;26.10;94.30;;;;;;4992166;28;20358;-77
2023/06/24 14:14:49;;;;;;;5.20;4.00;;;25.80;94.30;;;;;;5009960;28;20221;-76
2023/06/24 14:17:39;;;;;;;5.22;3.40;;;25.50;93.60;;;;;;4991211;28;20219;-77
2023/06/24 14:20:29;;;;;;;6.70;3.85;;;25.30;94.10;;;;;;4995455;28;20231;-78
2023/06/24 14:23:18;;;;;;;6.22;3.88;;;25.10;95.40;;;;;;5007894;28;20227;-81
2023/06/24 14:26:07;;;;;;;5.85;3.80;;;24.90;95.60;;;;;;4997574;28;20448;-75
2023/06/24 14:28:56;;;;;;;4.18;3.78;;;24.80;95.50;;;;;;4999728;28;20721;-77
2023/06/24 14:31:45;;;;;;;6.53;4.53;;;24.70;95.50;;;;;;4989940;28;20233;-77
2023/06/24 14:34:35;;;;;;;5.90;3.95;;;24.60;95.70;;;;;;4990407;28;20233;-77
2023/06/24 14:37:25;;;;;;;5.97;3.90;;;24.60;95.70;;;;;;4995892;28;20222;-78
2023/06/24 14:40:14;;;;;;;5.00;3.95;;;24.50;95.90;;;;;;5001133;28;20300;-79
2023/06/24 14:43:03;;;;;;;4.93;3.92;;;24.40;96.10;;;;;;5002920;28;20245;-78
2023/06/24 14:45:52;;;;;;;7.60;4.57;;;24.30;96.60;;;;;;5000066;28;20249;-78